sensor_id;sensor_type;location;lat;lon;timestamp;pressure;altitude;pressure_sealevel;temperature;humidity
56558;BME280;43358;50.356;12.456;2022-12-07T00:00:29;95303;;;0.9;98.8
56558;BME280;43358;50.356;12.456;2022-12-07T00:01:32;95299;;;0.9;98.8
56558;BME280;43358;50.356;12.456;2022-12-07T00:02:33;95302;;;0.9;98.8
56558;BME280;43358;50.356;12.456;2022-12-07T00:03:35;95301;;;0.8;98.8
56558;BME280;43358;50.356;12.456;2022-12-07T00:04:37;95301;;;0.8;98.8
56558;BME280;43358;50.356;12.456;2022-12-07T00:05:39;95300;;;0.8;98.8
56558;BME280;43358;50.356;12.456;2022-12-07T00:06:42;95302;;;0.8;98.8
56558;BME280;43358;50.356;12.456;2022-12-07T00:07:43;95300;;;0.8;98.8
56558;BME280;43358;50.356;12.456;2022-12-07T00:08:45;95300;;;0.8;98.8
56558;BME280;43358;50.356;12.456;2022-12-07T00:09:47;95299;;;0.9;98.8
56558;BME280;43358;50.356;12.456;2022-12-07T00:10:49;95297;;;0.9;98.8
56558;BME280;43358;50.356;12.456;2022-12-07T00:11:51;95300;;;0.9;98.8
56558;BME280;43358;50.356;12.456;2022-12-07T00:12:54;95298;;;0.9;98.8
56558;BME280;43358;50.356;12.456;2022-12-07T00:13:56;95297;;;0.9;98.8
56558;BME280;43358;50.356;12.456;2022-12-07T00:14:58;95295;;;0.9;98.8
56558;BME280;43358;50.356;12.456;2022-12-07T00:16:01;95297;;;0.9;98.8
56558;BME280;43358;50.356;12.456;2022-12-07T00:17:02;95291;;;0.9;98.8
56558;BME280;43358;50.356;12.456;2022-12-07T00:18:04;95294;;;0.9;98.8
56558;BME280;43358;50.356;12.456;2022-12-07T00:19:06;95294;;;0.9;98.8
56558;BME280;43358;50.356;12.456;2022-12-07T00:20:08;95291;;;0.9;98.8
56558;BME280;43358;50.356;12.456;2022-12-07T00:21:11;95291;;;0.9;98.8
56558;BME280;43358;50.356;12.456;2022-12-07T00:22:12;95290;;;0.9;98.8
56558;BME280;43358;50.356;12.456;2022-12-07T00:23:15;95289;;;0.9;98.8
56558;BME280;43358;50.356;12.456;2022-12-07T00:24:17;95289;;;0.9;98.8
56558;BME280;43358;50.356;12.456;2022-12-07T00:25:23;95287;;;1;98.8
56558;BME280;43358;50.356;12.456;2022-12-07T00:26:48;95286;;;0.9;98.8
56558;BME280;43358;50.356;12.456;2022-12-07T00:27:48;95286;;;0.9;98.8
56558;BME280;43358;50.356;12.456;2022-12-07T00:28:48;95285;;;0.9;98.8
56558;BME280;43358;50.356;12.456;2022-12-07T00:29:48;95280;;;0.8;98.8
56558;BME280;43358;50.356;12.456;2022-12-07T00:30:48;95278;;;0.8;98.8
56558;BME280;43358;50.356;12.456;2022-12-07T00:31:48;95280;;;0.8;98.8
56558;BME280;43358;50.356;12.456;2022-12-07T00:32:48;95277;;;0.8;98.8
56558;BME280;43358;50.356;12.456;2022-12-07T00:33:48;95275;;;0.9;98.8
56558;BME280;43358;50.356;12.456;2022-12-07T00:34:48;95265;;;0.9;98.8
56558;BME280;43358;50.356;12.456;2022-12-07T00:35:54;95272;;;0.9;98.8
56558;BME280;43358;50.356;12.456;2022-12-07T00:36:48;95271;;;0.9;98.8
56558;BME280;43358;50.356;12.456;2022-12-07T00:37:48;95267;;;0.9;98.8
56558;BME280;43358;50.356;12.456;2022-12-07T00:38:50;95267;;;1;98.8
56558;BME280;43358;50.356;12.456;2022-12-07T00:39:51;95265;;;0.9;98.8
56558;BME280;43358;50.356;12.456;2022-12-07T00:40:55;95266;;;0.9;98.8
56558;BME280;43358;50.356;12.456;2022-12-07T00:41:56;95264;;;0.9;98.8
56558;BME280;43358;50.356;12.456;2022-12-07T00:42:59;95265;;;1;98.8
56558;BME280;43358;50.356;12.456;2022-12-07T00:45:03;95263;;;1;98.8
56558;BME280;43358;50.356;12.456;2022-12-07T00:46:06;95260;;;1;98.8
56558;BME280;43358;50.356;12.456;2022-12-07T00:47:07;95263;;;1;98.8
56558;BME280;43358;50.356;12.456;2022-12-07T00:48:10;95267;;;1;98.8
56558;BME280;43358;50.356;12.456;2022-12-07T00:49:11;95265;;;0.9;98.8
56558;BME280;43358;50.356;12.456;2022-12-07T00:50:13;95271;;;1;98.8
56558;BME280;43358;50.356;12.456;2022-12-07T00:51:16;95273;;;1;98.8
56558;BME280;43358;50.356;12.456;2022-12-07T00:52:19;95265;;;1;98.8
56558;BME280;43358;50.356;12.456;2022-12-07T00:53:22;95269;;;1;98.8
56558;BME280;43358;50.356;12.456;2022-12-07T00:54:24;95268;;;1;98.8
56558;BME280;43358;50.356;12.456;2022-12-07T00:55:26;95266;;;1;98.6
56558;BME280;43358;50.356;12.456;2022-12-07T00:56:29;95264;;;1;98.4
56558;BME280;43358;50.356;12.456;2022-12-07T00:57:31;95267;;;1;98.2
56558;BME280;43358;50.356;12.456;2022-12-07T00:58:33;95271;;;1;98.2
56558;BME280;43358;50.356;12.456;2022-12-07T00:59:35;95267;;;1;98.5
56558;BME280;43358;50.356;12.456;2022-12-07T01:00:37;95265;;;1;98.4
56558;BME280;43358;50.356;12.456;2022-12-07T01:01:39;95262;;;1;98.1
56558;BME280;43358;50.356;12.456;2022-12-07T01:02:40;95267;;;1;98.2
56558;BME280;43358;50.356;12.456;2022-12-07T01:03:42;95271;;;0.9;98.3
56558;BME280;43358;50.356;12.456;2022-12-07T01:04:45;95271;;;0.9;98.2
56558;BME280;43358;50.356;12.456;2022-12-07T01:05:50;95271;;;0.9;98.2
56558;BME280;43358;50.356;12.456;2022-12-07T01:06:48;95271;;;0.8;98.7
56558;BME280;43358;50.356;12.456;2022-12-07T01:09:26;95267;;;0.7;98.1
56558;BME280;43358;50.356;12.456;2022-12-07T01:10:28;95265;;;0.8;98.4
56558;BME280;43358;50.356;12.456;2022-12-07T01:11:30;95269;;;0.7;98.3
56558;BME280;43358;50.356;12.456;2022-12-07T01:12:32;95269;;;0.7;98.4
56558;BME280;43358;50.356;12.456;2022-12-07T01:13:34;95269;;;0.7;98.5
56558;BME280;43358;50.356;12.456;2022-12-07T01:14:36;95266;;;0.6;98.6
56558;BME280;43358;50.356;12.456;2022-12-07T01:15:38;95266;;;0.6;98.4
56558;BME280;43358;50.356;12.456;2022-12-07T01:16:40;95264;;;0.6;98.2
56558;BME280;43358;50.356;12.456;2022-12-07T01:17:42;95265;;;0.7;98.2
56558;BME280;43358;50.356;12.456;2022-12-07T01:18:45;95264;;;0.7;97.7
56558;BME280;43358;50.356;12.456;2022-12-07T01:19:46;95268;;;0.7;97.5
56558;BME280;43358;50.356;12.456;2022-12-07T01:20:56;95267;;;0.6;97.5
56558;BME280;43358;50.356;12.456;2022-12-07T01:21:50;95263;;;0.6;98.1
56558;BME280;43358;50.356;12.456;2022-12-07T01:23:06;95266;;;0.5;98
56558;BME280;43358;50.356;12.456;2022-12-07T01:23:54;95266;;;0.5;98.2
56558;BME280;43358;50.356;12.456;2022-12-07T01:24:56;95267;;;0.5;98.1
56558;BME280;43358;50.356;12.456;2022-12-07T01:26:00;95263;;;0.5;97.9
56558;BME280;43358;50.356;12.456;2022-12-07T01:27:01;95262;;;0.5;98.1
56558;BME280;43358;50.356;12.456;2022-12-07T01:31:48;95267;;;0.3;98.8
56558;BME280;43358;50.356;12.456;2022-12-07T01:32:48;95270;;;0.3;98.8
56558;BME280;43358;50.356;12.456;2022-12-07T01:33:49;95270;;;0.3;98.8
56558;BME280;43358;50.356;12.456;2022-12-07T01:34:48;95269;;;0.3;98.8
56558;BME280;43358;50.356;12.456;2022-12-07T01:35:48;95270;;;0.3;98.8
56558;BME280;43358;50.356;12.456;2022-12-07T01:36:48;95269;;;0.2;98.8
56558;BME280;43358;50.356;12.456;2022-12-07T01:37:48;95265;;;0.2;98.8
56558;BME280;43358;50.356;12.456;2022-12-07T01:38:49;95264;;;0.2;98.8
56558;BME280;43358;50.356;12.456;2022-12-07T01:39:48;95260;;;0.2;98.8
56558;BME280;43358;50.356;12.456;2022-12-07T01:40:53;95263;;;0.1;98.8
56558;BME280;43358;50.356;12.456;2022-12-07T01:41:48;95266;;;0.1;98.8
56558;BME280;43358;50.356;12.456;2022-12-07T01:42:48;95263;;;0.1;98.8
56558;BME280;43358;50.356;12.456;2022-12-07T01:44:20;95259;;;0.1;98.8
56558;BME280;43358;50.356;12.456;2022-12-07T01:45:18;95258;;;0;98.8
56558;BME280;43358;50.356;12.456;2022-12-07T01:45:48;95258;;;0;98.8
56558;BME280;43358;50.356;12.456;2022-12-07T01:46:49;95256;;;0;98.8
56558;BME280;43358;50.356;12.456;2022-12-07T01:47:50;95253;;;0;98.8
56558;BME280;43358;50.356;12.456;2022-12-07T01:48:48;95256;;;0;98.8
56558;BME280;43358;50.356;12.456;2022-12-07T01:49:48;95253;;;0;98.8
56558;BME280;43358;50.356;12.456;2022-12-07T01:51:52;95252;;;-0.1;98.8
56558;BME280;43358;50.356;12.456;2022-12-07T01:52:53;95254;;;-0.1;98.8
56558;BME280;43358;50.356;12.456;2022-12-07T01:53:55;95252;;;-0.1;98.8
56558;BME280;43358;50.356;12.456;2022-12-07T01:57:24;95251;;;-0.2;98.8
56558;BME280;43358;50.356;12.456;2022-12-07T01:58:14;95251;;;-0.2;98.8
56558;BME280;43358;50.356;12.456;2022-12-07T01:59:17;95250;;;-0.2;98.8
56558;BME280;43358;50.356;12.456;2022-12-07T02:01:22;95247;;;-0.2;98.8
56558;BME280;43358;50.356;12.456;2022-12-07T02:02:26;95245;;;-0.2;98.8
56558;BME280;43358;50.356;12.456;2022-12-07T02:03:29;95244;;;-0.2;98.8
56558;BME280;43358;50.356;12.456;2022-12-07T02:04:29;95240;;;-0.2;98.8
56558;BME280;43358;50.356;12.456;2022-12-07T02:05:32;95240;;;-0.2;98.8
56558;BME280;43358;50.356;12.456;2022-12-07T02:06:33;95235;;;-0.3;98.8
56558;BME280;43358;50.356;12.456;2022-12-07T02:07:36;95233;;;-0.3;98.8
56558;BME280;43358;50.356;12.456;2022-12-07T02:08:37;95238;;;-0.3;98.8
56558;BME280;43358;50.356;12.456;2022-12-07T02:09:39;95233;;;-0.3;98.8
56558;BME280;43358;50.356;12.456;2022-12-07T02:10:41;95233;;;-0.3;98.8
56558;BME280;43358;50.356;12.456;2022-12-07T02:11:43;95233;;;-0.3;98.8
56558;BME280;43358;50.356;12.456;2022-12-07T02:12:46;95233;;;-0.3;98.8
56558;BME280;43358;50.356;12.456;2022-12-07T02:13:47;95232;;;-0.3;98.8
56558;BME280;43358;50.356;12.456;2022-12-07T02:14:49;95230;;;-0.3;98.8
56558;BME280;43358;50.356;12.456;2022-12-07T02:15:56;95232;;;-0.3;98.8
56558;BME280;43358;50.356;12.456;2022-12-07T02:16:57;95224;;;-0.3;98.8
56558;BME280;43358;50.356;12.456;2022-12-07T02:17:57;95222;;;-0.3;98.8
56558;BME280;43358;50.356;12.456;2022-12-07T02:19:01;95221;;;-0.3;98.8
56558;BME280;43358;50.356;12.456;2022-12-07T02:20:11;95221;;;-0.3;98.8
56558;BME280;43358;50.356;12.456;2022-12-07T02:21:02;95223;;;-0.3;98.8
56558;BME280;43358;50.356;12.456;2022-12-07T02:22:07;95226;;;-0.3;98.8
56558;BME280;43358;50.356;12.456;2022-12-07T02:23:26;95222;;;-0.3;98.8
56558;BME280;43358;50.356;12.456;2022-12-07T02:24:19;95225;;;-0.3;98.8
56558;BME280;43358;50.356;12.456;2022-12-07T02:25:12;95223;;;-0.4;98.8
56558;BME280;43358;50.356;12.456;2022-12-07T02:26:19;95227;;;-0.4;98.8
56558;BME280;43358;50.356;12.456;2022-12-07T02:27:19;95226;;;-0.4;98.8
56558;BME280;43358;50.356;12.456;2022-12-07T02:28:17;95229;;;-0.4;98.8
56558;BME280;43358;50.356;12.456;2022-12-07T02:29:31;95228;;;-0.4;98.8
56558;BME280;43358;50.356;12.456;2022-12-07T02:30:20;95228;;;-0.4;98.8
56558;BME280;43358;50.356;12.456;2022-12-07T02:31:22;95231;;;-0.4;98.8
56558;BME280;43358;50.356;12.456;2022-12-07T02:32:26;95225;;;-0.4;98.8
56558;BME280;43358;50.356;12.456;2022-12-07T02:33:28;95222;;;-0.4;98.8
56558;BME280;43358;50.356;12.456;2022-12-07T02:34:34;95223;;;-0.4;98.8
56558;BME280;43358;50.356;12.456;2022-12-07T02:35:33;95223;;;-0.5;98.8
56558;BME280;43358;50.356;12.456;2022-12-07T02:36:36;95224;;;-0.5;98.8
56558;BME280;43358;50.356;12.456;2022-12-07T02:37:37;95222;;;-0.5;98.8
56558;BME280;43358;50.356;12.456;2022-12-07T02:38:39;95227;;;-0.5;98.8
56558;BME280;43358;50.356;12.456;2022-12-07T02:39:41;95227;;;-0.5;98.8
56558;BME280;43358;50.356;12.456;2022-12-07T02:40:43;95228;;;-0.5;98.8
56558;BME280;43358;50.356;12.456;2022-12-07T02:41:46;95228;;;-0.5;98.8
56558;BME280;43358;50.356;12.456;2022-12-07T02:42:47;95225;;;-0.5;98.8
56558;BME280;43358;50.356;12.456;2022-12-07T02:43:50;95226;;;-0.5;98.8
56558;BME280;43358;50.356;12.456;2022-12-07T02:44:50;95224;;;-0.5;98.8
56558;BME280;43358;50.356;12.456;2022-12-07T02:45:54;95225;;;-0.5;98.8
56558;BME280;43358;50.356;12.456;2022-12-07T02:46:56;95225;;;-0.5;98.8
56558;BME280;43358;50.356;12.456;2022-12-07T02:47:57;95221;;;-0.5;98.8
56558;BME280;43358;50.356;12.456;2022-12-07T02:48:58;95219;;;-0.5;98.8
56558;BME280;43358;50.356;12.456;2022-12-07T02:50:02;95218;;;-0.5;98.8
56558;BME280;43358;50.356;12.456;2022-12-07T02:51:04;95220;;;-0.5;98.8
56558;BME280;43358;50.356;12.456;2022-12-07T02:52:05;95222;;;-0.5;98.8
56558;BME280;43358;50.356;12.456;2022-12-07T02:53:27;95220;;;-0.4;98.8
56558;BME280;43358;50.356;12.456;2022-12-07T02:54:10;95221;;;-0.4;98.8
56558;BME280;43358;50.356;12.456;2022-12-07T02:55:11;95222;;;-0.4;98.8
56558;BME280;43358;50.356;12.456;2022-12-07T02:56:18;95224;;;-0.4;98.8
56558;BME280;43358;50.356;12.456;2022-12-07T02:57:24;95222;;;-0.4;98.8
56558;BME280;43358;50.356;12.456;2022-12-07T02:58:21;95224;;;-0.4;98.8
56558;BME280;43358;50.356;12.456;2022-12-07T02:59:24;95223;;;-0.4;98.8
56558;BME280;43358;50.356;12.456;2022-12-07T03:00:22;95221;;;-0.4;98.8
56558;BME280;43358;50.356;12.456;2022-12-07T03:01:28;95222;;;-0.4;98.8
56558;BME280;43358;50.356;12.456;2022-12-07T03:02:31;95220;;;-0.4;98.8
56558;BME280;43358;50.356;12.456;2022-12-07T03:03:30;95214;;;-0.4;98.8
56558;BME280;43358;50.356;12.456;2022-12-07T03:04:34;95217;;;-0.4;98.8
56558;BME280;43358;50.356;12.456;2022-12-07T03:05:43;95217;;;-0.4;98.8
56558;BME280;43358;50.356;12.456;2022-12-07T03:06:38;95217;;;-0.4;98.8
56558;BME280;43358;50.356;12.456;2022-12-07T03:07:39;95219;;;-0.4;98.8
56558;BME280;43358;50.356;12.456;2022-12-07T03:08:43;95222;;;-0.4;98.8
56558;BME280;43358;50.356;12.456;2022-12-07T03:09:43;95219;;;-0.4;98.8
56558;BME280;43358;50.356;12.456;2022-12-07T03:10:46;95218;;;-0.4;98.8
56558;BME280;43358;50.356;12.456;2022-12-07T03:11:47;95217;;;-0.4;98.8
56558;BME280;43358;50.356;12.456;2022-12-07T03:12:51;95215;;;-0.4;98.8
56558;BME280;43358;50.356;12.456;2022-12-07T03:13:52;95213;;;-0.4;98.8
56558;BME280;43358;50.356;12.456;2022-12-07T03:14:55;95211;;;-0.4;98.8
56558;BME280;43358;50.356;12.456;2022-12-07T03:15:57;95212;;;-0.4;98.8
56558;BME280;43358;50.356;12.456;2022-12-07T03:17:00;95212;;;-0.4;98.8
56558;BME280;43358;50.356;12.456;2022-12-07T03:18:01;95210;;;-0.4;98.8
56558;BME280;43358;50.356;12.456;2022-12-07T03:19:03;95207;;;-0.4;98.8
56558;BME280;43358;50.356;12.456;2022-12-07T03:20:05;95204;;;-0.4;98.8
56558;BME280;43358;50.356;12.456;2022-12-07T03:21:08;95209;;;-0.4;98.8
56558;BME280;43358;50.356;12.456;2022-12-07T03:22:09;95208;;;-0.4;98.8
56558;BME280;43358;50.356;12.456;2022-12-07T03:23:10;95208;;;-0.4;98.8
56558;BME280;43358;50.356;12.456;2022-12-07T03:24:14;95206;;;-0.4;98.8
56558;BME280;43358;50.356;12.456;2022-12-07T03:25:15;95202;;;-0.4;98.8
56558;BME280;43358;50.356;12.456;2022-12-07T03:26:17;95204;;;-0.4;98.8
56558;BME280;43358;50.356;12.456;2022-12-07T03:27:19;95203;;;-0.4;98.8
56558;BME280;43358;50.356;12.456;2022-12-07T03:28:21;95207;;;-0.4;98.8
56558;BME280;43358;50.356;12.456;2022-12-07T03:29:27;95204;;;-0.4;98.8
56558;BME280;43358;50.356;12.456;2022-12-07T03:30:29;95204;;;-0.4;98.8
56558;BME280;43358;50.356;12.456;2022-12-07T03:31:31;95202;;;-0.4;98.8
56558;BME280;43358;50.356;12.456;2022-12-07T03:32:33;95203;;;-0.4;98.8
56558;BME280;43358;50.356;12.456;2022-12-07T03:33:36;95204;;;-0.4;98.8
56558;BME280;43358;50.356;12.456;2022-12-07T03:34:39;95205;;;-0.4;98.8
56558;BME280;43358;50.356;12.456;2022-12-07T03:35:39;95204;;;-0.4;98.8
56558;BME280;43358;50.356;12.456;2022-12-07T03:36:41;95206;;;-0.4;98.8
56558;BME280;43358;50.356;12.456;2022-12-07T03:37:44;95205;;;-0.4;98.8
56558;BME280;43358;50.356;12.456;2022-12-07T03:38:45;95204;;;-0.4;98.8
56558;BME280;43358;50.356;12.456;2022-12-07T03:41:51;95197;;;-0.4;98.8
56558;BME280;43358;50.356;12.456;2022-12-07T03:43:56;95196;;;-0.4;98.8
56558;BME280;43358;50.356;12.456;2022-12-07T03:44:58;95196;;;-0.4;98.8
56558;BME280;43358;50.356;12.456;2022-12-07T03:46:02;95199;;;-0.4;98.8
56558;BME280;43358;50.356;12.456;2022-12-07T03:47:04;95201;;;-0.4;98.8
56558;BME280;43358;50.356;12.456;2022-12-07T03:48:07;95196;;;-0.4;98.8
56558;BME280;43358;50.356;12.456;2022-12-07T03:49:08;95198;;;-0.4;98.8
56558;BME280;43358;50.356;12.456;2022-12-07T03:52:50;95197;;;-0.4;98.8
56558;BME280;43358;50.356;12.456;2022-12-07T03:55:54;95197;;;-0.4;98.8
56558;BME280;43358;50.356;12.456;2022-12-07T04:00:48;95197;;;-0.3;98.8
56558;BME280;43358;50.356;12.456;2022-12-07T04:01:51;95197;;;-0.3;98.8
56558;BME280;43358;50.356;12.456;2022-12-07T04:02:50;95198;;;-0.3;98.8
56558;BME280;43358;50.356;12.456;2022-12-07T04:03:48;95199;;;-0.3;98.8
56558;BME280;43358;50.356;12.456;2022-12-07T04:04:48;95198;;;-0.3;98.8
56558;BME280;43358;50.356;12.456;2022-12-07T04:05:48;95199;;;-0.3;98.8
56558;BME280;43358;50.356;12.456;2022-12-07T04:06:48;95197;;;-0.2;98.8
56558;BME280;43358;50.356;12.456;2022-12-07T04:07:48;95195;;;-0.2;98.8
56558;BME280;43358;50.356;12.456;2022-12-07T04:08:48;95198;;;-0.1;98.8
56558;BME280;43358;50.356;12.456;2022-12-07T04:09:48;95196;;;-0.1;98.8
56558;BME280;43358;50.356;12.456;2022-12-07T04:10:48;95194;;;0;98.8
56558;BME280;43358;50.356;12.456;2022-12-07T04:11:48;95196;;;0.1;98.8
56558;BME280;43358;50.356;12.456;2022-12-07T04:12:48;95192;;;0.1;98.8
56558;BME280;43358;50.356;12.456;2022-12-07T04:13:48;95190;;;0.2;98.8
56558;BME280;43358;50.356;12.456;2022-12-07T04:14:48;95185;;;0.2;98.8
56558;BME280;43358;50.356;12.456;2022-12-07T04:15:48;95186;;;0.2;98.8
56558;BME280;43358;50.356;12.456;2022-12-07T04:16:49;95183;;;0.2;98.8
56558;BME280;43358;50.356;12.456;2022-12-07T04:17:48;95186;;;0.2;98.8
56558;BME280;43358;50.356;12.456;2022-12-07T04:18:48;95187;;;0.2;98.8
56558;BME280;43358;50.356;12.456;2022-12-07T04:19:48;95188;;;0.2;98.8
56558;BME280;43358;50.356;12.456;2022-12-07T04:20:48;95190;;;0.2;98.8
56558;BME280;43358;50.356;12.456;2022-12-07T04:21:48;95187;;;0.2;98.8
56558;BME280;43358;50.356;12.456;2022-12-07T04:22:48;95183;;;0.2;98.8
56558;BME280;43358;50.356;12.456;2022-12-07T04:23:48;95186;;;0.2;98.8
56558;BME280;43358;50.356;12.456;2022-12-07T04:24:48;95186;;;0.1;98.8
56558;BME280;43358;50.356;12.456;2022-12-07T04:25:48;95187;;;0.1;98.8
56558;BME280;43358;50.356;12.456;2022-12-07T04:26:48;95187;;;0.1;98.8
56558;BME280;43358;50.356;12.456;2022-12-07T04:27:48;95187;;;0.1;98.8
56558;BME280;43358;50.356;12.456;2022-12-07T04:28:48;95188;;;0.2;98.8
56558;BME280;43358;50.356;12.456;2022-12-07T04:29:49;95185;;;0.1;98.8
56558;BME280;43358;50.356;12.456;2022-12-07T04:30:51;95181;;;0.2;98.8
56558;BME280;43358;50.356;12.456;2022-12-07T04:31:53;95173;;;0.2;98.8
56558;BME280;43358;50.356;12.456;2022-12-07T04:32:55;95171;;;0.2;98.8
56558;BME280;43358;50.356;12.456;2022-12-07T04:33:57;95166;;;0.2;98.8
56558;BME280;43358;50.356;12.456;2022-12-07T04:34:59;95161;;;0.2;98.8
56558;BME280;43358;50.356;12.456;2022-12-07T04:36:01;95162;;;0.3;98.8
56558;BME280;43358;50.356;12.456;2022-12-07T04:37:03;95164;;;0.3;98.8
56558;BME280;43358;50.356;12.456;2022-12-07T04:38:05;95163;;;0.3;98.6
56558;BME280;43358;50.356;12.456;2022-12-07T04:39:17;95167;;;0.3;98.7
56558;BME280;43358;50.356;12.456;2022-12-07T04:40:09;95162;;;0.2;98.8
56558;BME280;43358;50.356;12.456;2022-12-07T04:41:11;95169;;;0.3;98.8
56558;BME280;43358;50.356;12.456;2022-12-07T04:42:14;95172;;;0.3;98.8
56558;BME280;43358;50.356;12.456;2022-12-07T04:43:16;95171;;;0.2;98.8
56558;BME280;43358;50.356;12.456;2022-12-07T04:44:19;95175;;;0.2;98.8
56558;BME280;43358;50.356;12.456;2022-12-07T04:45:21;95177;;;0.2;98.8
56558;BME280;43358;50.356;12.456;2022-12-07T04:46:23;95175;;;0.2;98.8
56558;BME280;43358;50.356;12.456;2022-12-07T04:47:26;95173;;;0.2;98.8
56558;BME280;43358;50.356;12.456;2022-12-07T04:48:28;95174;;;0.2;98.8
56558;BME280;43358;50.356;12.456;2022-12-07T04:49:30;95167;;;0.2;98.8
56558;BME280;43358;50.356;12.456;2022-12-07T04:50:34;95164;;;0.2;98.8
56558;BME280;43358;50.356;12.456;2022-12-07T04:51:35;95163;;;0.2;98.8
56558;BME280;43358;50.356;12.456;2022-12-07T04:52:38;95163;;;0.2;98.8
56558;BME280;43358;50.356;12.456;2022-12-07T04:53:54;95162;;;0.2;98.8
56558;BME280;43358;50.356;12.456;2022-12-07T04:54:48;95161;;;0.2;98.8
56558;BME280;43358;50.356;12.456;2022-12-07T04:55:48;95169;;;0.2;98.8
56558;BME280;43358;50.356;12.456;2022-12-07T04:56:48;95167;;;0.2;98.8
56558;BME280;43358;50.356;12.456;2022-12-07T04:57:48;95168;;;0.2;98.8
56558;BME280;43358;50.356;12.456;2022-12-07T04:58:51;95164;;;0.1;98.8
56558;BME280;43358;50.356;12.456;2022-12-07T04:59:52;95163;;;0.1;98.8
56558;BME280;43358;50.356;12.456;2022-12-07T05:00:55;95160;;;0.1;98.8
56558;BME280;43358;50.356;12.456;2022-12-07T05:01:56;95157;;;0.1;98.8
56558;BME280;43358;50.356;12.456;2022-12-07T05:02:59;95157;;;0.1;98.8
56558;BME280;43358;50.356;12.456;2022-12-07T05:04:01;95158;;;0.1;98.8
56558;BME280;43358;50.356;12.456;2022-12-07T05:05:04;95159;;;0.1;98.8
56558;BME280;43358;50.356;12.456;2022-12-07T05:06:06;95155;;;0.2;98.8
56558;BME280;43358;50.356;12.456;2022-12-07T05:07:08;95155;;;0.2;98.8
56558;BME280;43358;50.356;12.456;2022-12-07T05:08:10;95161;;;0.2;98.8
56558;BME280;43358;50.356;12.456;2022-12-07T05:09:12;95161;;;0.1;98.8
56558;BME280;43358;50.356;12.456;2022-12-07T05:10:14;95166;;;0.1;98.8
56558;BME280;43358;50.356;12.456;2022-12-07T05:11:16;95163;;;0.1;98.8
56558;BME280;43358;50.356;12.456;2022-12-07T05:12:18;95165;;;0.1;98.8
56558;BME280;43358;50.356;12.456;2022-12-07T05:13:20;95167;;;0.1;98.8
56558;BME280;43358;50.356;12.456;2022-12-07T05:14:22;95165;;;0.1;98.8
56558;BME280;43358;50.356;12.456;2022-12-07T05:15:24;95164;;;0.1;98.8
56558;BME280;43358;50.356;12.456;2022-12-07T05:17:28;95161;;;0.1;98.8
56558;BME280;43358;50.356;12.456;2022-12-07T05:18:30;95164;;;0.1;98.8
56558;BME280;43358;50.356;12.456;2022-12-07T05:19:32;95163;;;0.1;98.8
56558;BME280;43358;50.356;12.456;2022-12-07T05:20:35;95166;;;0.1;98.8
56558;BME280;43358;50.356;12.456;2022-12-07T05:21:38;95161;;;0.1;98.8
56558;BME280;43358;50.356;12.456;2022-12-07T05:22:40;95160;;;0.1;98.8
56558;BME280;43358;50.356;12.456;2022-12-07T05:23:42;95157;;;0.2;98.8
56558;BME280;43358;50.356;12.456;2022-12-07T05:24:44;95156;;;0.2;98.8
56558;BME280;43358;50.356;12.456;2022-12-07T05:25:46;95153;;;0.2;98.8
56558;BME280;43358;50.356;12.456;2022-12-07T05:26:48;95154;;;0.2;98.8
56558;BME280;43358;50.356;12.456;2022-12-07T05:27:50;95154;;;0.2;98.8
56558;BME280;43358;50.356;12.456;2022-12-07T05:28:52;95155;;;0.2;98.8
56558;BME280;43358;50.356;12.456;2022-12-07T05:29:54;95155;;;0.2;98.8
56558;BME280;43358;50.356;12.456;2022-12-07T05:30:56;95158;;;0.2;98.8
56558;BME280;43358;50.356;12.456;2022-12-07T05:31:58;95157;;;0.2;98.8
56558;BME280;43358;50.356;12.456;2022-12-07T05:34:02;95155;;;0.2;98.8
56558;BME280;43358;50.356;12.456;2022-12-07T05:35:04;95156;;;0.3;98.8
56558;BME280;43358;50.356;12.456;2022-12-07T05:36:07;95153;;;0.3;98.8
56558;BME280;43358;50.356;12.456;2022-12-07T05:37:24;95150;;;0.3;98.8
56558;BME280;43358;50.356;12.456;2022-12-07T05:38:11;95152;;;0.3;98.8
56558;BME280;43358;50.356;12.456;2022-12-07T05:39:13;95154;;;0.3;98.8
56558;BME280;43358;50.356;12.456;2022-12-07T05:40:16;95152;;;0.3;98.8
56558;BME280;43358;50.356;12.456;2022-12-07T05:41:18;95152;;;0.3;98.8
56558;BME280;43358;50.356;12.456;2022-12-07T05:42:20;95150;;;0.3;98.8
56558;BME280;43358;50.356;12.456;2022-12-07T05:43:22;95152;;;0.3;98.8
56558;BME280;43358;50.356;12.456;2022-12-07T05:44:24;95151;;;0.3;98.8
56558;BME280;43358;50.356;12.456;2022-12-07T05:45:27;95148;;;0.3;98.8
56558;BME280;43358;50.356;12.456;2022-12-07T05:46:29;95147;;;0.3;98.8
56558;BME280;43358;50.356;12.456;2022-12-07T05:47:31;95149;;;0.3;98.8
56558;BME280;43358;50.356;12.456;2022-12-07T05:48:33;95150;;;0.3;98.8
56558;BME280;43358;50.356;12.456;2022-12-07T05:49:35;95146;;;0.3;98.8
56558;BME280;43358;50.356;12.456;2022-12-07T05:50:38;95144;;;0.3;98.8
56558;BME280;43358;50.356;12.456;2022-12-07T05:51:40;95144;;;0.3;98.8
56558;BME280;43358;50.356;12.456;2022-12-07T05:52:42;95143;;;0.3;98.8
56558;BME280;43358;50.356;12.456;2022-12-07T05:53:44;95141;;;0.3;98.8
56558;BME280;43358;50.356;12.456;2022-12-07T05:54:46;95139;;;0.4;98.8
56558;BME280;43358;50.356;12.456;2022-12-07T05:55:49;95141;;;0.4;98.8
56558;BME280;43358;50.356;12.456;2022-12-07T05:56:51;95142;;;0.3;98.8
56558;BME280;43358;50.356;12.456;2022-12-07T05:59:22;95137;;;0.3;98.8
56558;BME280;43358;50.356;12.456;2022-12-07T06:00:24;95136;;;0.3;98.8
56558;BME280;43358;50.356;12.456;2022-12-07T06:01:26;95137;;;0.3;98.8
56558;BME280;43358;50.356;12.456;2022-12-07T06:02:28;95131;;;0.3;98.8
56558;BME280;43358;50.356;12.456;2022-12-07T06:03:30;95136;;;0.3;98.8
56558;BME280;43358;50.356;12.456;2022-12-07T06:04:33;95136;;;0.2;98.8
56558;BME280;43358;50.356;12.456;2022-12-07T06:05:34;95132;;;0.2;98.8
56558;BME280;43358;50.356;12.456;2022-12-07T06:06:36;95135;;;0.2;98.8
56558;BME280;43358;50.356;12.456;2022-12-07T06:07:40;95136;;;0.2;98.8
56558;BME280;43358;50.356;12.456;2022-12-07T06:08:42;95134;;;0.3;98.8
56558;BME280;43358;50.356;12.456;2022-12-07T06:09:44;95137;;;0.3;98.8
56558;BME280;43358;50.356;12.456;2022-12-07T06:10:46;95136;;;0.3;98.8
56558;BME280;43358;50.356;12.456;2022-12-07T06:11:49;95134;;;0.3;98.8
56558;BME280;43358;50.356;12.456;2022-12-07T06:12:51;95134;;;0.3;98.8
56558;BME280;43358;50.356;12.456;2022-12-07T06:13:53;95138;;;0.2;98.8
56558;BME280;43358;50.356;12.456;2022-12-07T06:14:55;95138;;;0.2;98.8
56558;BME280;43358;50.356;12.456;2022-12-07T06:15:57;95139;;;0.2;98.8